Merry Christmas and Happy New Year!

 

Sretan Božić i Nova godina!

 

METAR

METAR LDZA 081700Z 06006KT 360V100 CAVOK 18/M05 Q1024 NOSIG =
METAR LDSP 081700Z AUTO 28004KT 240V340 CAVOK 17/M04 Q1023=
METAR LDDU 081700Z 31010KT CAVOK 14/08 Q1022 NOSIG =
METAR LDZD 081700Z 29007KT CAVOK 16/00 Q1023 NOSIG =
METAR LDPL 081700Z 27007KT CAVOK 15/M06 Q1023 NOSIG=
METAR LDOS 081700Z 11004KT CAVOK 17/M01 Q1025=
METAR LDRI 081700Z 06008KT 010V120 CAVOK 20/M07 Q1023=

TAF

TAF LDZA 081725Z 0818/0918 07006KT CAVOK
                 TX21/0914Z TN01/0905Z=
TAF LDSP 081725Z 0818/0918 32006KT CAVOK
                 TX22/0914Z TN10/0905Z
           BECMG 0909/0911 23012KT
           BECMG 0914/0916 34008KT=
TAF LDDU 081725Z 0818/0918 29008KT CAVOK
                 TX18/0913Z TN11/0903Z
           BECMG 0818/0820 02015KT
           BECMG 0910/0912 29012KT
           BECMG 0916/0918 30005KT=
TAF LDZD 081725Z 0818/0918 VRB02KT CAVOK
                 TX21/0913Z TN05/0904Z
           BECMG 0909/0911 28015KT=
TAF LDPL 081725Z 0818/0918 32005KT CAVOK
                 TX21/0914Z TN06/0905Z
    PROB30 TEMPO 0820/0904 06008KT
           BECMG 0910/0912 27012KT=
TAF LDOS 081725Z 0818/0918 11005KT CAVOK
                 TX23/0914Z TN02/0905Z=
TAF LDRI 081126Z 0812/0912 12012KT CAVOK
                 TX23/0813Z TN06/0905Z
           BECMG 0813/0815 VRB02KT
    PROB40 TEMPO 0816/0820 06014KT=

SIGMET

AIRMET

Remark

Ukoliko se brzina i smjer vjetra ne mogu odrediti zbog privremenog kvara sustava/indikatora,
informacija o vjetru u METAR izvješću bit će prikazana kao "/////KT".

 

Disclaimer

 

In case of temporary system/sensor failure, wind speed and direction data will be represented as "/////KT" in METAR report.

 

If you cannot log in with your user account, please contact stjepko.jancijev@crocontrol.hr.
Specifically, the website deactivates user accounts that have not been used for more than 365 days, so they must be reactivated.
 

         

      Politika MET podataka      

 

Ukoliko se svojim korisničkim računom ne možete logirati na web stranicu, molim vas da se obratite na stjepko.jancijev@crocontrol.hr.

Naime, web stranica deaktivira korisničke račune koji nisu korišteni više od 365 dana te ih je potrebno ponovno aktivirati.